Time;durP1;ratioP1;P1;durP2;ratioP2;P2;SDS_P1;SDS_P2;PMS_P1;PMS_P2;Temp;Humidity;BMP_temperature;BMP_pressure;BME280_temperature;BME280_humidity;BME280_pressure;Samples;Min_cycle;Max_cycle;Signal;HPM_P1;HPM_P2
2023/01/02 00:00:02;;;;;;;15.77;6.38;;;;;;;12.08;100.00;100966.13;5028080;28;20033;-65
2023/01/02 00:02:28;;;;;;;13.52;6.43;;;;;;;12.01;100.00;100959.31;5008320;28;20513;-64
2023/01/02 00:04:53;;;;;;;14.50;6.45;;;;;;;12.10;100.00;100964.28;4988629;28;20088;-62
2023/01/02 00:07:18;;;;;;;13.02;6.20;;;;;;;12.10;100.00;100966.91;4988130;28;20022;-63
2023/01/02 00:09:44;;;;;;;13.93;5.93;;;;;;;12.12;100.00;100962.44;4971300;28;20024;-64
2023/01/02 00:12:09;;;;;;;10.60;5.88;;;;;;;12.20;100.00;100970.06;4988433;28;20026;-64
2023/01/02 00:14:34;;;;;;;11.23;6.43;;;;;;;12.18;100.00;100965.75;4988526;28;20040;-63
2023/01/02 00:17:00;;;;;;;13.18;6.93;;;;;;;12.17;100.00;100954.34;4988268;28;20120;-64
2023/01/02 00:19:25;;;;;;;19.48;6.50;;;;;;;12.19;100.00;100956.94;4970918;28;20123;-65
2023/01/02 00:21:50;;;;;;;15.70;6.85;;;;;;;12.12;100.00;100946.59;4987470;28;20183;-63
2023/01/02 00:24:16;;;;;;;16.30;6.82;;;;;;;12.10;100.00;100948.41;4988931;28;20481;-64
2023/01/02 00:26:41;;;;;;;19.63;6.95;;;;;;;12.15;100.00;100945.59;4988127;28;20444;-64
2023/01/02 00:29:06;;;;;;;16.80;6.60;;;;;;;12.11;100.00;100936.97;5005252;28;20041;-65
2023/01/02 00:31:32;;;;;;;17.10;6.35;;;;;;;12.11;100.00;100931.69;5007820;28;20022;-62
2023/01/02 00:33:57;;;;;;;20.98;6.45;;;;;;;12.07;100.00;100940.63;5005582;28;20037;-63
2023/01/02 00:36:22;;;;;;;14.65;5.85;;;;;;;12.12;100.00;100933.38;5007106;28;20083;-63
2023/01/02 00:38:48;;;;;;;18.45;6.85;;;;;;;12.16;100.00;100935.91;5008278;28;20101;-64
2023/01/02 00:41:13;;;;;;;16.10;6.30;;;;;;;12.19;100.00;100930.50;5007492;28;20117;-63
2023/01/02 00:43:38;;;;;;;16.15;6.45;;;;;;;12.22;100.00;100943.59;5007852;28;20025;-64
2023/01/02 00:46:05;;;;;;;15.88;6.75;;;;;;;12.20;100.00;100938.38;5007554;28;20049;-65
2023/01/02 00:48:30;;;;;;;11.10;6.20;;;;;;;12.23;100.00;100926.81;5007989;28;20026;-64
2023/01/02 00:50:55;;;;;;;14.15;6.40;;;;;;;12.25;100.00;100935.53;5006347;28;20104;-64
2023/01/02 00:53:21;;;;;;;15.65;6.43;;;;;;;12.24;100.00;100939.97;5007369;28;20030;-64
2023/01/02 00:55:46;;;;;;;11.95;5.70;;;;;;;12.25;100.00;100930.25;5008277;28;20373;-64
2023/01/02 00:58:12;;;;;;;17.05;6.20;;;;;;;12.24;100.00;100923.25;5005978;28;20097;-65
2023/01/02 01:00:38;;;;;;;16.13;6.35;;;;;;;12.28;100.00;100924.84;4989551;28;20058;-65
2023/01/02 01:03:03;;;;;;;13.13;6.68;;;;;;;12.25;100.00;100923.19;4988392;28;20078;-64
2023/01/02 01:05:28;;;;;;;15.15;6.68;;;;;;;12.27;100.00;100928.41;5007829;28;20034;-62
2023/01/02 01:07:55;;;;;;;12.98;6.85;;;;;;;12.23;100.00;100916.25;5006920;28;20025;-63
2023/01/02 01:10:21;;;;;;;15.60;6.95;;;;;;;12.21;100.00;100912.81;5008104;28;20022;-60
2023/01/02 01:12:47;;;;;;;14.45;7.32;;;;;;;12.16;100.00;100909.50;5008546;28;20026;-64
2023/01/02 01:15:12;;;;;;;17.92;6.82;;;;;;;12.18;100.00;100908.50;5007917;28;20052;-65
2023/01/02 01:17:38;;;;;;;16.35;7.22;;;;;;;12.15;100.00;100897.19;5008424;28;20026;-64
2023/01/02 01:20:03;;;;;;;18.00;7.65;;;;;;;12.09;100.00;100903.59;5008024;28;20022;-65
2023/01/02 01:22:29;;;;;;;20.45;8.48;;;;;;;12.12;100.00;100882.31;5007551;28;20412;-65
2023/01/02 01:24:54;;;;;;;15.43;7.93;;;;;;;12.10;100.00;100882.38;4990267;28;20042;-65
2023/01/02 01:27:19;;;;;;;16.83;8.00;;;;;;;12.13;100.00;100884.91;5024721;28;20428;-64
2023/01/02 01:29:45;;;;;;;16.52;7.63;;;;;;;12.08;100.00;100892.19;5027810;28;20484;-65
2023/01/02 01:32:10;;;;;;;18.02;8.68;;;;;;;12.03;100.00;100883.53;5027088;28;20511;-64
2023/01/02 01:34:35;;;;;;;22.85;9.02;;;;;;;12.01;100.00;100885.34;5027816;28;20480;-66
2023/01/02 01:37:01;;;;;;;17.88;8.48;;;;;;;12.02;100.00;100879.16;5027782;28;20083;-65
2023/01/02 01:39:26;;;;;;;19.88;9.82;;;;;;;12.04;100.00;100879.97;5031523;28;20025;-60
2023/01/02 01:41:51;;;;;;;14.75;8.32;;;;;;;12.09;100.00;100891.25;5031155;28;20043;-65
2023/01/02 01:44:49;;;;;;;19.67;8.95;;;;;;;12.06;100.00;100891.34;5032074;28;20036;-65
2023/01/02 01:47:26;;;;;;;19.48;8.30;;;;;;;12.03;100.00;100901.13;5031277;28;20052;-64
2023/01/02 01:50:16;;;;;;;19.13;8.65;;;;;;;12.11;100.00;100904.38;5013704;28;20026;-64
2023/01/02 01:52:47;;;;;;;21.08;8.40;;;;;;;12.10;100.00;100913.25;5023207;28;20043;-66
2023/01/02 01:55:21;;;;;;;16.08;8.18;;;;;;;12.08;100.00;100921.22;5022379;28;20384;-65
2023/01/02 01:58:10;;;;;;;13.98;8.07;;;;;;;12.17;100.00;100917.38;4993568;28;20499;-63
2023/01/02 02:00:36;;;;;;;;;;;;;;;12.15;100.00;100920.97;5010027;28;20034;-64
2023/01/02 02:03:10;;;;;;;17.58;7.65;;;;;;;12.12;100.00;100914.91;5001390;28;20391;-65
2023/01/02 02:05:35;;;;;;;17.20;7.78;;;;;;;12.15;100.00;100907.75;4990737;28;20027;-63
2023/01/02 02:08:51;;;;;;;17.75;7.78;;;;;;;12.22;100.00;100920.66;4957571;28;20125;-64
2023/01/02 02:11:17;;;;;;;15.35;7.90;;;;;;;12.21;100.00;100918.97;4931519;29;20110;-64
2023/01/02 02:13:42;;;;;;;16.48;7.43;;;;;;;12.23;100.00;100910.97;4931271;29;20122;-64
2023/01/02 02:16:17;;;;;;;21.30;7.28;;;;;;;12.24;100.00;100917.97;4963795;28;20038;-64
2023/01/02 02:19:10;;;;;;;14.25;6.80;;;;;;;12.17;100.00;100913.84;4991315;28;20050;-65
2023/01/02 02:21:53;;;;;;;17.33;6.68;;;;;;;12.23;100.00;100914.47;4972855;28;20368;-65
2023/01/02 02:24:42;;;;;;;12.27;6.75;;;;;;;12.27;100.00;100912.56;4991463;28;20030;-64
2023/01/02 02:27:24;;;;;;;12.57;6.68;;;;;;;12.27;100.00;100907.28;4975099;28;20031;-64
2023/01/02 02:30:11;;;;;;;16.95;6.25;;;;;;;12.31;100.00;100908.03;4993655;28;20100;-63
2023/01/02 02:33:21;;;;;;;16.45;6.82;;;;;;;12.25;100.00;100912.63;5010161;28;20045;-64
2023/01/02 02:35:56;;;;;;;15.73;7.10;;;;;;;12.24;100.00;100912.69;5009790;28;20030;-63
2023/01/02 02:38:51;;;;;;;17.63;7.50;;;;;;;12.24;100.00;100910.91;4993313;28;20380;-62
2023/01/02 02:41:38;;;;;;;20.67;6.90;;;;;;;12.26;100.00;100911.69;4993438;28;20065;-62
2023/01/02 02:44:34;;;;;;;15.82;7.00;;;;;;;12.27;100.00;100904.63;4993014;28;20030;-63
2023/01/02 02:47:14;;;;;;;13.63;7.13;;;;;;;12.31;100.00;100902.75;4993038;28;20040;-64
2023/01/02 02:50:07;;;;;;;11.90;7.20;;;;;;;12.35;100.00;100899.03;4992846;28;20048;-64
2023/01/02 02:52:45;;;;;;;15.60;7.32;;;;;;;12.31;100.00;100893.00;4992354;28;20538;-63
2023/01/02 02:55:32;;;;;;;15.15;7.07;;;;;;;12.33;100.00;100890.31;4992986;28;20108;-63
2023/01/02 02:57:59;;;;;;;10.10;6.35;;;;;;;12.24;100.00;100886.25;5009108;28;20030;-63
2023/01/02 03:00:24;;;;;;;12.20;6.50;;;;;;;12.21;100.00;100875.81;5011971;28;20021;-64
2023/01/02 03:02:50;;;;;;;14.02;6.68;;;;;;;12.30;100.00;100869.28;5028111;28;20044;-62
2023/01/02 03:05:28;;;;;;;15.43;6.50;;;;;;;12.23;100.00;100880.13;5029176;28;20041;-62
2023/01/02 03:07:59;;;;;;;14.27;6.53;;;;;;;12.30;100.00;100875.44;5029551;28;20044;-64
2023/01/02 03:10:34;;;;;;;17.70;6.97;;;;;;;12.37;100.00;100866.34;5012438;28;20100;-64
2023/01/02 03:13:24;;;;;;;13.38;5.90;;;;;;;12.34;100.00;100866.47;5030150;28;20357;-62
2023/01/02 03:16:17;;;;;;;10.27;6.75;;;;;;;12.23;100.00;100868.69;5012889;28;20036;-62
2023/01/02 03:18:52;;;;;;;18.55;6.50;;;;;;;12.40;100.00;100881.22;5012137;28;20120;-63
2023/01/02 03:21:27;;;;;;;15.77;6.45;;;;;;;12.43;100.00;100882.88;5011611;28;20036;-63
2023/01/02 03:23:54;;;;;;;17.15;5.72;;;;;;;12.46;100.00;100882.75;5029467;28;20037;-63
2023/01/02 03:26:24;;;;;;;15.18;5.95;;;;;;;12.53;100.00;100886.88;4993645;28;20431;-64
2023/01/02 03:28:53;;;;;;;14.13;5.93;;;;;;;12.59;100.00;100876.06;4991874;28;20038;-64
2023/01/02 03:31:20;;;;;;;19.40;6.32;;;;;;;12.48;100.00;100879.13;4992204;28;20056;-58
2023/01/02 03:34:00;;;;;;;14.93;6.03;;;;;;;12.53;100.00;100875.44;4991388;28;20485;-62
2023/01/02 03:36:28;;;;;;;16.20;5.60;;;;;;;12.60;100.00;100879.53;5009044;28;20048;-64
2023/01/02 03:39:01;;;;;;;17.65;5.78;;;;;;;12.63;100.00;100892.63;4991935;28;20036;-64
2023/01/02 03:41:29;;;;;;;13.25;5.93;;;;;;;12.69;100.00;100886.22;4991984;28;20491;-65
2023/01/02 03:43:55;;;;;;;19.38;6.15;;;;;;;12.69;100.00;100891.50;4991899;28;20025;-59
2023/01/02 03:46:31;;;;;;;18.17;6.18;;;;;;;12.67;100.00;100898.66;4991755;28;20029;-64
2023/01/02 03:49:06;;;;;;;12.20;5.85;;;;;;;12.68;100.00;100905.66;4992078;28;20033;-63
2023/01/02 03:51:31;;;;;;;12.52;6.32;;;;;;;12.60;100.00;100900.69;4991336;28;20037;-65
2023/01/02 03:53:58;;;;;;;15.52;5.88;;;;;;;12.60;100.00;100892.75;4975548;28;20121;-65
2023/01/02 03:56:42;;;;;;;15.45;6.20;;;;;;;12.63;100.00;100897.91;5012092;28;20049;-64
2023/01/02 03:59:24;;;;;;;11.25;5.80;;;;;;;12.64;100.00;100905.78;5010347;28;20037;-63
2023/01/02 04:01:55;;;;;;;14.40;5.88;;;;;;;12.60;100.00;100900.69;5028475;28;20487;-67
2023/01/02 04:04:27;;;;;;;12.32;5.60;;;;;;;12.64;100.00;100897.84;5027866;28;20041;-60
2023/01/02 04:07:00;;;;;;;15.95;5.25;;;;;;;12.70;100.00;100898.53;5010476;28;20073;-64
2023/01/02 04:09:27;;;;;;;18.00;6.07;;;;;;;12.68;100.00;100900.38;5011335;28;20039;-64
2023/01/02 04:11:56;;;;;;;16.45;5.47;;;;;;;12.70;100.00;100901.16;5010927;28;20017;-63
2023/01/02 04:14:33;;;;;;;18.10;6.03;;;;;;;12.74;100.00;100887.72;5011048;28;20026;-64
2023/01/02 04:17:00;;;;;;;16.40;5.55;;;;;;;12.68;100.00;100903.00;5011045;28;20482;-65
2023/01/02 04:19:31;;;;;;;13.55;5.90;;;;;;;12.69;100.00;100912.66;5028483;28;20021;-60
2023/01/02 04:21:59;;;;;;;13.75;5.25;;;;;;;12.66;100.00;100916.28;5009972;28;20156;-64
2023/01/02 04:24:34;;;;;;;11.25;5.70;;;;;;;12.67;100.00;100910.06;5010740;28;20025;-65
2023/01/02 04:27:05;;;;;;;18.63;6.28;;;;;;;12.67;100.00;100925.09;5025857;28;20380;-64
2023/01/02 04:29:30;;;;;;;15.45;5.80;;;;;;;12.72;100.00;100920.44;5010266;28;20035;-65
2023/01/02 04:32:01;;;;;;;13.30;6.28;;;;;;;12.80;100.00;100918.38;5027080;28;20112;-63
2023/01/02 04:34:28;;;;;;;9.25;6.22;;;;;;;12.65;100.00;100927.78;4994330;28;20026;-62
2023/01/02 04:36:54;;;;;;;11.57;6.72;;;;;;;12.59;100.00;100926.28;5009804;28;20037;-62
2023/01/02 04:39:21;;;;;;;17.77;7.10;;;;;;;12.59;100.00;100931.56;5011413;28;20032;-64
2023/01/02 04:41:46;;;;;;;12.50;6.90;;;;;;;12.63;100.00;100956.06;5011329;28;20120;-62
2023/01/02 04:44:12;;;;;;;11.23;6.80;;;;;;;12.52;100.00;100969.72;5028313;28;20101;-63
2023/01/02 04:46:37;;;;;;;10.50;6.30;;;;;;;12.42;100.00;100973.63;5028541;28;20108;-65
2023/01/02 04:49:02;;;;;;;8.48;4.40;;;;;;;12.22;100.00;100972.66;5028287;28;20125;-63
2023/01/02 04:51:28;;;;;;;4.13;3.00;;;;;;;11.97;100.00;100994.66;5027705;28;20037;-60
2023/01/02 04:53:53;;;;;;;1.30;1.20;;;;;;;11.65;100.00;101015.19;5018607;28;20037;-64
2023/01/02 04:56:19;;;;;;;1.42;1.33;;;;;;;11.47;100.00;101025.50;5008823;28;20507;-67
2023/01/02 04:58:45;;;;;;;1.63;1.02;;;;;;;11.30;100.00;101029.56;5008004;28;20022;-63
2023/01/02 05:01:12;;;;;;;1.52;0.98;;;;;;;11.09;100.00;101026.75;5007320;28;20034;-61
2023/01/02 05:03:39;;;;;;;1.58;1.00;;;;;;;10.98;100.00;101032.34;5008539;28;20096;-64
2023/01/02 05:06:04;;;;;;;1.58;1.48;;;;;;;10.91;100.00;101044.03;5007368;28;20386;-64
2023/01/02 05:08:30;;;;;;;2.08;1.30;;;;;;;10.95;100.00;101057.94;4990850;28;20018;-64
2023/01/02 05:10:55;;;;;;;2.40;1.27;;;;;;;10.86;100.00;101078.44;5009079;28;20033;-64
2023/01/02 05:13:20;;;;;;;1.13;1.13;;;;;;;10.77;100.00;101073.44;5012461;28;20018;-61
2023/01/02 05:15:53;;;;;;;0.98;0.98;;;;;;;10.78;100.00;101079.59;5012603;28;20053;-62
2023/01/02 05:18:18;;;;;;;2.15;1.30;;;;;;;10.79;100.00;101076.03;5012575;28;20022;-63
2023/01/02 05:20:43;;;;;;;1.45;1.35;;;;;;;10.77;100.00;101078.72;5011595;28;20103;-64
2023/01/02 05:25:54;;;;;;;1.30;1.20;;;;;;;10.77;100.00;101080.50;5006986;28;20097;-65
2023/01/02 05:28:19;;;;;;;1.10;1.10;;;;;;;10.69;100.00;101088.63;5012381;28;20018;-65
2023/01/02 05:30:44;;;;;;;1.67;1.27;;;;;;;10.65;100.00;101098.41;5011875;28;20096;-63
2023/01/02 05:33:10;;;;;;;1.55;1.23;;;;;;;10.64;100.00;101101.06;5011745;28;20034;-64
2023/01/02 05:35:35;;;;;;;1.77;1.05;;;;;;;10.59;100.00;101104.72;5004999;28;20091;-64
2023/01/02 05:38:01;;;;;;;2.45;1.20;;;;;;;10.53;100.00;101120.72;5010695;28;20026;-64
2023/01/02 05:40:26;;;;;;;1.88;1.52;;;;;;;10.57;100.00;101117.06;5011686;28;20030;-64
2023/01/02 05:42:51;;;;;;;1.50;1.40;;;;;;;10.59;100.00;101125.81;5006998;28;20030;-60
2023/01/02 05:45:17;;;;;;;3.10;1.73;;;;;;;10.59;100.00;101136.34;5011272;28;20026;-63
2023/01/02 05:47:42;;;;;;;3.13;1.70;;;;;;;10.60;100.00;101148.59;5011424;28;20058;-63
2023/01/02 05:50:07;;;;;;;5.43;2.55;;;;;;;10.49;100.00;101151.56;4993192;28;20034;-64
2023/01/02 05:52:33;;;;;;;4.00;2.78;;;;;;;10.52;100.00;101170.81;5007882;28;20068;-64
2023/01/02 05:54:58;;;;;;;2.95;2.17;;;;;;;10.44;100.00;101171.00;5006008;28;20072;-61
2023/01/02 05:57:23;;;;;;;3.72;2.63;;;;;;;10.41;100.00;101169.31;5009902;28;20073;-64
2023/01/02 05:59:49;;;;;;;5.22;1.83;;;;;;;10.17;100.00;101176.13;5011245;28;20026;-63
2023/01/02 06:02:14;;;;;;;4.95;2.38;;;;;;;10.11;100.00;101180.63;5010925;28;20030;-64
2023/01/02 06:04:39;;;;;;;6.10;2.50;;;;;;;10.01;100.00;101200.22;5010466;28;20154;-64
2023/01/02 06:07:05;;;;;;;7.68;2.85;;;;;;;10.06;100.00;101197.47;5010023;28;20080;-64
2023/01/02 06:09:30;;;;;;;8.30;2.38;;;;;;;9.99;100.00;101194.13;5011265;28;20022;-64
2023/01/02 06:11:55;;;;;;;9.02;2.65;;;;;;;10.00;100.00;101193.25;5010826;28;20022;-64
2023/01/02 06:14:22;;;;;;;10.07;2.47;;;;;;;9.91;100.00;101202.22;5011558;28;20112;-63
2023/01/02 06:16:48;;;;;;;4.78;2.42;;;;;;;9.89;100.00;101208.41;5009532;28;20112;-64
2023/01/02 06:19:13;;;;;;;11.05;2.90;;;;;;;9.89;100.00;101211.06;5010962;28;20057;-64
2023/01/02 06:21:39;;;;;;;5.15;2.92;;;;;;;9.73;100.00;101222.81;5010164;28;20029;-64
2023/01/02 06:24:04;;;;;;;11.93;3.13;;;;;;;9.88;100.00;101227.75;5009039;28;20562;-64
2023/01/02 06:26:30;;;;;;;12.15;3.22;;;;;;;9.96;100.00;101238.94;5011459;28;20364;-64
2023/01/02 06:28:56;;;;;;;8.63;2.92;;;;;;;9.94;100.00;101238.13;5010890;28;20026;-64
2023/01/02 06:31:24;;;;;;;7.05;2.80;;;;;;;9.77;100.00;101236.78;5014937;28;20025;-65
2023/01/02 06:33:57;;;;;;;6.60;2.45;;;;;;;9.93;100.00;101241.69;5030421;28;20032;-63
2023/01/02 06:36:22;;;;;;;6.85;2.83;;;;;;;9.94;100.00;101253.94;5009434;28;20412;-64
2023/01/02 06:38:48;;;;;;;5.28;1.65;;;;;;;9.88;100.00;101259.34;5010431;28;20026;-64
2023/01/02 06:41:14;;;;;;;9.77;2.35;;;;;;;9.94;100.00;101261.81;5009819;28;20030;-64
2023/01/02 06:43:47;;;;;;;11.05;2.17;;;;;;;9.97;100.00;101264.38;5009867;28;20540;-62
2023/01/02 06:46:14;;;;;;;10.15;1.70;;;;;;;9.92;100.00;101272.41;5009854;28;20433;-64
2023/01/02 06:48:40;;;;;;;11.05;1.98;;;;;;;10.02;100.00;101275.66;5010498;28;20480;-64
2023/01/02 06:51:06;;;;;;;7.18;1.90;;;;;;;10.06;100.00;101276.47;5008990;28;20029;-63
2023/01/02 06:53:33;;;;;;;6.47;2.25;;;;;;;10.06;100.00;101292.25;5010140;28;20025;-65
2023/01/02 06:55:58;;;;;;;6.95;2.50;;;;;;;10.04;100.00;101289.66;5010159;28;20446;-64
2023/01/02 06:58:25;;;;;;;12.77;3.08;;;;;;;10.09;100.00;101294.81;5009459;28;20034;-64
2023/01/02 07:00:51;;;;;;;10.68;2.63;;;;;;;10.08;100.00;101287.81;5010146;28;20038;-61
2023/01/02 07:03:17;;;;;;;9.45;2.50;;;;;;;10.00;100.00;101298.53;5010245;28;20120;-64
2023/01/02 07:05:43;;;;;;;7.80;2.65;;;;;;;10.05;100.00;101293.16;5009204;28;20113;-66
2023/01/02 07:08:08;;;;;;;9.68;2.95;;;;;;;10.09;100.00;101300.94;5009666;28;20116;-63
2023/01/02 07:10:34;;;;;;;12.30;3.10;;;;;;;10.09;100.00;101313.25;5010412;28;20458;-65
2023/01/02 07:12:59;;;;;;;9.68;3.00;;;;;;;10.13;100.00;101327.19;5010078;28;20030;-62
2023/01/02 07:15:24;;;;;;;13.90;3.78;;;;;;;10.09;100.00;101335.16;5008993;28;20018;-64
2023/01/02 07:17:50;;;;;;;7.70;3.00;;;;;;;10.07;100.00;101342.25;4991779;28;20531;-64
2023/01/02 07:20:15;;;;;;;8.68;2.65;;;;;;;9.97;100.00;101353.91;5009092;28;20038;-64
2023/01/02 07:22:41;;;;;;;7.10;2.40;;;;;;;10.00;100.00;101353.84;5009957;28;20028;-64
2023/01/02 07:25:06;;;;;;;7.82;2.63;;;;;;;9.93;100.00;101358.34;5010513;28;20025;-64
2023/01/02 07:27:32;;;;;;;11.23;2.85;;;;;;;9.86;100.00;101354.13;5009317;28;20048;-63
2023/01/02 07:29:57;;;;;;;8.48;2.63;;;;;;;9.88;100.00;101362.00;5006550;28;20042;-64
2023/01/02 07:32:23;;;;;;;14.00;3.35;;;;;;;9.81;100.00;101364.75;5008926;28;20033;-62
2023/01/02 07:34:48;;;;;;;6.63;3.20;;;;;;;9.90;100.00;101368.94;5006246;28;20092;-63
2023/01/02 07:37:14;;;;;;;9.75;2.78;;;;;;;9.94;100.00;101382.91;5007829;28;20109;-63
2023/01/02 07:39:39;;;;;;;4.43;3.25;;;;;;;9.87;100.00;101390.06;5007820;28;20030;-62
2023/01/02 07:42:05;;;;;;;12.70;3.05;;;;;;;9.93;100.00;101394.38;5007577;28;20038;-63
2023/01/02 07:44:30;;;;;;;5.63;2.85;;;;;;;9.93;100.00;101411.00;5008718;28;20033;-64
2023/01/02 07:46:56;;;;;;;8.43;2.47;;;;;;;9.88;100.00;101430.44;5008267;28;20088;-63
2023/01/02 07:49:21;;;;;;;2.58;2.20;;;;;;;9.86;100.00;101423.44;4991252;28;20041;-63
2023/01/02 07:51:46;;;;;;;6.53;2.53;;;;;;;9.90;100.00;101436.53;5009292;28;20053;-63
2023/01/02 07:54:12;;;;;;;7.45;2.63;;;;;;;9.82;100.00;101445.44;5019612;28;20109;-64
2023/01/02 07:56:45;;;;;;;4.53;2.35;;;;;;;9.78;100.00;101456.09;5106394;27;20414;-64
2023/01/02 07:59:10;;;;;;;12.00;2.72;;;;;;;9.95;100.00;101440.81;5085340;28;20036;-63
2023/01/02 08:01:35;;;;;;;10.13;3.13;;;;;;;9.98;100.00;101455.66;5086270;28;20102;-59
2023/01/02 08:04:01;;;;;;;6.47;2.70;;;;;;;9.86;100.00;101462.94;5086055;28;20028;-63
2023/01/02 08:06:26;;;;;;;7.57;2.88;;;;;;;9.89;100.00;101469.88;5085611;28;20024;-63
2023/01/02 08:08:52;;;;;;;6.93;2.53;;;;;;;9.94;100.00;101472.44;5085775;28;20047;-62
2023/01/02 08:11:19;;;;;;;10.50;2.92;;;;;;;10.01;100.00;101481.06;5068035;28;20078;-61
2023/01/02 08:13:45;;;;;;;5.10;2.53;;;;;;;10.05;100.00;101474.84;5084950;28;20036;-61
2023/01/02 08:16:13;;;;;;;3.92;2.30;;;;;;;10.04;100.00;101473.97;5085539;28;20037;-63
2023/01/02 08:18:38;;;;;;;3.58;2.00;;;;;;;9.94;100.00;101493.50;5084912;28;20028;-63
2023/01/02 08:21:04;;;;;;;5.50;1.90;;;;;;;9.99;100.00;101486.34;5084634;28;20496;-63
2023/01/02 08:23:30;;;;;;;10.43;1.95;;;;;;;10.05;100.00;101478.31;5085828;28;20028;-61
2023/01/02 08:26:03;;;;;;;9.48;2.45;;;;;;;10.06;100.00;101480.03;5080290;28;20028;-62
2023/01/02 08:28:30;;;;;;;5.25;1.50;;;;;;;10.03;100.00;101495.06;5066018;28;20120;-63
2023/01/02 08:30:55;;;;;;;4.57;1.58;;;;;;;9.99;100.00;101499.50;5065447;28;20100;-60
2023/01/02 08:33:21;;;;;;;4.15;1.60;;;;;;;10.02;100.00;101504.72;5065462;28;20100;-63
2023/01/02 08:35:46;;;;;;;8.57;1.80;;;;;;;10.02;100.00;101504.72;5064781;28;20036;-63
2023/01/02 08:38:12;;;;;;;6.63;1.63;;;;;;;10.03;100.00;101510.84;5047119;28;20020;-62
2023/01/02 08:40:38;;;;;;;8.65;1.88;;;;;;;9.96;100.00;101525.91;5065071;28;20112;-61
2023/01/02 08:43:05;;;;;;;4.38;1.70;;;;;;;9.94;100.00;101523.28;5046282;28;20060;-67
2023/01/02 08:45:31;;;;;;;2.20;1.35;;;;;;;9.90;100.00;101532.16;5064920;28;20048;-63
2023/01/02 08:47:56;;;;;;;4.05;1.73;;;;;;;9.92;100.00;101542.66;5064353;28;20102;-63
2023/01/02 08:50:21;;;;;;;5.13;1.92;;;;;;;9.88;100.00;101543.63;5064340;28;20055;-61
2023/01/02 08:52:47;;;;;;;11.23;1.75;;;;;;;9.93;100.00;101539.16;5072676;28;20020;-62
2023/01/02 08:55:12;;;;;;;7.47;2.10;;;;;;;9.97;100.00;101543.44;5050100;28;20037;-62
2023/01/02 08:57:38;;;;;;;5.72;1.65;;;;;;;9.96;100.00;101552.22;5044642;28;20029;-61
2023/01/02 09:00:04;;;;;;;5.60;1.67;;;;;;;10.02;100.00;101551.25;5041704;28;20025;-62
2023/01/02 09:02:29;;;;;;;4.97;1.35;;;;;;;10.06;100.00;101551.13;5045552;28;20025;-62
2023/01/02 09:04:54;;;;;;;6.82;1.42;;;;;;;10.11;100.00;101557.19;5044413;28;20079;-62
2023/01/02 09:07:20;;;;;;;6.63;1.50;;;;;;;10.17;100.00;101563.25;5054764;28;20446;-59
2023/01/02 09:09:45;;;;;;;8.10;1.60;;;;;;;10.15;100.00;101567.66;5050675;28;20029;-61
2023/01/02 09:12:11;;;;;;;4.22;1.40;;;;;;;10.07;100.00;101567.81;5047578;28;20036;-61
2023/01/02 09:14:36;;;;;;;10.02;1.27;;;;;;;10.03;100.00;101580.19;5028050;28;20030;-63
2023/01/02 09:17:02;;;;;;;9.48;1.10;;;;;;;10.01;100.00;101587.25;5028970;28;20018;-61
2023/01/02 09:19:27;;;;;;;5.13;1.05;;;;;;;10.02;100.00;101594.22;5029337;28;20018;-61
2023/01/02 09:21:52;;;;;;;4.50;1.27;;;;;;;9.93;100.00;101592.66;5028793;28;20029;-61
2023/01/02 09:24:18;;;;;;;6.60;1.63;;;;;;;9.94;100.00;101599.63;5031008;28;20025;-63
2023/01/02 09:26:44;;;;;;;5.80;1.30;;;;;;;9.91;100.00;101590.94;5029717;28;20032;-61
2023/01/02 09:29:10;;;;;;;7.25;1.30;;;;;;;9.92;100.00;101595.31;5030874;28;20602;-61
2023/01/02 09:31:36;;;;;;;13.30;2.00;;;;;;;9.84;100.00;101591.06;5030495;28;20150;-61
2023/01/02 09:34:02;;;;;;;10.00;1.27;;;;;;;9.90;100.00;101599.75;5035032;28;20133;-61
2023/01/02 09:36:27;;;;;;;8.18;1.45;;;;;;;9.88;100.00;101596.28;5029332;28;20022;-61
2023/01/02 09:38:58;;;;;;;8.18;1.55;;;;;;;9.91;100.00;101596.22;5029671;28;20369;-63
2023/01/02 09:41:28;;;;;;;8.45;1.40;;;;;;;9.93;100.00;101597.06;5047773;28;20443;-61
2023/01/02 09:44:13;;;;;;;;;;;;;;;10.00;100.00;101585.53;5049032;28;20057;-59
2023/01/02 09:47:09;;;;;;;8.32;1.20;;;;;;;9.95;100.00;101593.50;5030353;28;19923;-61
2023/01/02 09:49:55;;;;;;;8.82;1.35;;;;;;;9.94;100.00;101594.38;5029369;28;20033;-62
2023/01/02 09:52:25;;;;;;;5.15;1.23;;;;;;;9.92;100.00;101600.56;5030374;28;20018;-59
2023/01/02 09:54:50;;;;;;;10.65;1.50;;;;;;;9.92;100.00;101606.72;5033600;28;20136;-57
2023/01/02 09:57:26;;;;;;;9.77;1.63;;;;;;;9.96;100.00;101615.41;5050125;28;20371;-60
2023/01/02 10:00:12;;;;;;;5.65;1.23;;;;;;;9.98;100.00;101618.91;5031298;28;20449;-60
2023/01/02 10:03:05;;;;;;;10.93;1.30;;;;;;;9.95;100.00;101625.09;5036778;28;20033;-61
2023/01/02 10:05:51;;;;;;;7.32;1.35;;;;;;;10.05;100.00;101633.69;5057831;28;20078;-60
2023/01/02 10:08:28;;;;;;;13.52;1.58;;;;;;;10.17;100.00;101640.47;5052172;28;20078;-54
2023/01/02 10:11:20;;;;;;;8.07;1.42;;;;;;;10.19;100.00;101637.81;5048741;28;20036;-59
2023/01/02 10:14:24;;;;;;;7.78;1.65;;;;;;;10.19;100.00;101650.97;5050244;28;20444;-60
2023/01/02 10:16:53;;;;;;;4.70;1.52;;;;;;;10.35;100.00;101633.97;5019607;28;20044;-61
2023/01/02 10:19:40;;;;;;;6.87;1.70;;;;;;;10.41;100.00;101632.97;5035063;28;20025;-60
2023/01/02 10:22:08;;;;;;;6.95;1.58;;;;;;;10.42;100.00;101625.94;5048574;28;20271;-62
2023/01/02 10:24:53;;;;;;;5.20;1.38;;;;;;;10.48;100.00;101628.50;5031613;28;20037;-60
2023/01/02 10:27:27;;;;;;;6.78;1.52;;;;;;;10.54;100.00;101628.34;5031236;28;20068;-60
2023/01/02 10:30:22;;;;;;;9.38;2.30;;;;;;;10.63;100.00;101626.44;5031554;28;20029;-60
2023/01/02 10:32:55;;;;;;;7.15;1.77;;;;;;;10.67;100.00;101628.09;5048862;28;20021;-59
2023/01/02 10:35:29;;;;;;;7.32;2.10;;;;;;;10.58;100.00;101650.25;5030648;28;20040;-61
2023/01/02 10:37:55;;;;;;;8.30;1.95;;;;;;;10.48;100.00;101639.88;5048806;28;20029;-61
2023/01/02 10:40:21;;;;;;;7.80;2.30;;;;;;;10.43;100.00;101636.47;5049671;28;20578;-57
2023/01/02 10:42:50;;;;;;;15.05;2.45;;;;;;;10.38;100.00;101640.94;5049518;28;20123;-61
2023/01/02 10:45:16;;;;;;;6.57;1.70;;;;;;;10.33;100.00;101638.41;5050015;28;20155;-62
2023/01/02 10:47:41;;;;;;;12.27;2.00;;;;;;;10.36;100.00;101640.13;5031231;28;20116;-62
2023/01/02 10:50:14;;;;;;;6.90;1.80;;;;;;;10.40;100.00;101652.34;5048373;28;20078;-63
2023/01/02 10:52:45;;;;;;;11.60;1.88;;;;;;;10.47;100.00;101653.97;5015324;28;20025;-65
2023/01/02 10:55:11;;;;;;;10.82;2.28;;;;;;;10.47;100.00;101659.25;5048519;28;20155;-63
2023/01/02 10:57:45;;;;;;;6.82;1.80;;;;;;;10.58;100.00;101656.41;5048350;28;20537;-62
2023/01/02 11:00:16;;;;;;;11.43;2.00;;;;;;;10.81;100.00;101652.38;5030630;28;20472;-62
2023/01/02 11:02:41;;;;;;;8.30;1.80;;;;;;;10.90;100.00;101650.47;5048269;28;20025;-64
2023/01/02 11:05:18;;;;;;;10.23;1.83;;;;;;;10.89;100.00;101654.84;5048142;28;20108;-65
2023/01/02 11:07:47;;;;;;;8.93;1.50;;;;;;;10.76;100.00;101656.91;5048598;28;20028;-59
2023/01/02 11:10:32;;;;;;;7.10;1.52;;;;;;;11.04;100.00;101676.50;5048250;28;20048;-64
2023/01/02 11:13:02;;;;;;;8.57;1.73;;;;;;;11.00;100.00;101678.34;5048558;28;20036;-63
2023/01/02 11:15:35;;;;;;;4.78;2.22;;;;;;;11.15;100.00;101682.41;5048382;28;20484;-61
2023/01/02 11:18:10;;;;;;;7.97;1.80;;;;;;;11.24;100.00;101683.97;5048339;28;20424;-65
2023/01/02 11:20:36;;;;;;;9.60;1.38;;;;;;;11.19;100.00;101683.19;5047593;28;20021;-63
2023/01/02 11:23:02;;;;;;;5.20;1.60;;;;;;;11.12;100.00;101688.63;5030113;28;20108;-63
2023/01/02 11:25:39;;;;;;;5.82;1.75;;;;;;;11.17;100.00;101695.56;5029463;28;20021;-61
2023/01/02 11:28:04;;;;;;;9.95;1.98;;;;;;;11.24;100.00;101694.53;5048222;28;20116;-61